Time;durP1;ratioP1;P1;durP2;ratioP2;P2;SDS_P1;SDS_P2;PMS_P1;PMS_P2;Temp;Humidity;BMP_temperature;BMP_pressure;BME280_temperature;BME280_humidity;BME280_pressure;Samples;Min_cycle;Max_cycle;Signal;HPM_P1;HPM_P2
2023/01/22 00:01:03;;;;;;;29.88;10.10;;;-1.20;99.90;;;;;;5122227;27;20039;-59
2023/01/22 00:03:30;;;;;;;26.42;10.77;;;-1.20;99.90;;;;;;5126450;27;20429;-58
2023/01/22 00:05:57;;;;;;;28.55;9.65;;;-1.20;99.90;;;;;;5121202;27;20070;-59
2023/01/22 00:08:23;;;;;;;27.80;10.75;;;-1.20;99.90;;;;;;5127842;27;20035;-59
2023/01/22 00:10:51;;;;;;;26.00;10.15;;;-1.20;99.90;;;;;;5124778;27;20083;-59
2023/01/22 00:13:19;;;;;;;27.85;11.05;;;-1.30;99.90;;;;;;5122273;27;20084;-57
2023/01/22 00:15:46;;;;;;;28.35;11.20;;;-1.30;99.90;;;;;;5118499;27;20031;-59
2023/01/22 00:18:13;;;;;;;25.33;9.82;;;-1.30;99.90;;;;;;5122124;27;20066;-59
2023/01/22 00:20:40;;;;;;;26.67;10.40;;;-1.30;99.90;;;;;;5120954;27;20075;-59
2023/01/22 00:23:07;;;;;;;23.67;9.95;;;-1.20;99.90;;;;;;5124133;27;20041;-59
2023/01/22 00:25:34;;;;;;;17.27;7.15;;;-1.20;99.90;;;;;;5117244;27;20067;-59
2023/01/22 00:28:00;;;;;;;27.45;10.85;;;-1.20;99.90;;;;;;5125124;27;20040;-59
2023/01/22 00:30:27;;;;;;;23.65;10.10;;;-1.20;99.90;;;;;;5096078;28;20043;-59
2023/01/22 00:32:54;;;;;;;27.08;10.48;;;-1.20;99.90;;;;;;5101009;27;20047;-59
2023/01/22 00:35:20;;;;;;;21.30;7.90;;;-1.20;99.90;;;;;;5124372;27;20100;-59
2023/01/22 00:37:47;;;;;;;25.30;10.57;;;-1.20;99.90;;;;;;5126287;28;20036;-59
2023/01/22 00:40:15;;;;;;;34.30;11.45;;;-1.20;99.90;;;;;;5112550;28;20047;-59
2023/01/22 00:42:42;;;;;;;32.10;12.07;;;-1.30;99.90;;;;;;5111697;28;21153;-59
2023/01/22 00:45:12;;;;;;;31.73;10.90;;;-1.20;99.90;;;;;;5109431;28;20039;-58
2023/01/22 00:47:39;;;;;;;34.95;12.27;;;-1.20;99.90;;;;;;5111450;28;20092;-58
2023/01/22 00:50:07;;;;;;;31.80;12.32;;;-1.20;99.90;;;;;;5112517;28;20035;-59
2023/01/22 00:52:36;;;;;;;34.08;13.27;;;-1.20;99.90;;;;;;5114622;27;20036;-59
2023/01/22 00:55:04;;;;;;;35.85;12.73;;;-1.20;99.90;;;;;;5123259;27;20049;-59
2023/01/22 00:57:31;;;;;;;29.60;12.20;;;-1.20;99.90;;;;;;5128669;27;20445;-59
2023/01/22 00:59:58;;;;;;;35.03;12.60;;;-1.20;99.90;;;;;;5125409;28;20084;-59
2023/01/22 01:02:28;;;;;;;34.42;11.98;;;-1.20;99.90;;;;;;5093894;28;20051;-60
2023/01/22 01:04:55;;;;;;;31.17;11.90;;;-1.20;99.90;;;;;;5129992;27;20084;-60
2023/01/22 01:07:22;;;;;;;35.50;12.93;;;-1.20;99.90;;;;;;5130852;27;20035;-60
2023/01/22 01:09:49;;;;;;;33.17;11.85;;;-1.30;99.90;;;;;;5114482;27;20070;-59
2023/01/22 01:12:16;;;;;;;32.70;12.40;;;-1.20;99.90;;;;;;5133407;27;20063;-59
2023/01/22 01:14:43;;;;;;;31.05;11.95;;;-1.20;99.90;;;;;;5134714;27;20035;-59
2023/01/22 01:17:09;;;;;;;31.42;12.45;;;-1.20;99.90;;;;;;5133404;27;20072;-60
2023/01/22 01:19:36;;;;;;;35.05;12.63;;;-1.20;99.90;;;;;;5115471;27;20035;-59
2023/01/22 01:22:04;;;;;;;34.55;13.55;;;-1.20;99.90;;;;;;5115229;27;20043;-60
2023/01/22 01:24:31;;;;;;;34.13;13.13;;;-1.20;99.90;;;;;;5116985;27;20043;-60
2023/01/22 01:26:58;;;;;;;24.70;9.25;;;-1.30;99.90;;;;;;5114801;27;20484;-60
2023/01/22 01:29:25;;;;;;;24.27;9.82;;;-1.30;99.90;;;;;;5135333;27;20096;-59
2023/01/22 01:31:53;;;;;;;36.63;13.40;;;-1.20;99.90;;;;;;5133544;27;20058;-59
2023/01/22 01:34:20;;;;;;;33.97;12.70;;;-1.30;99.90;;;;;;5135391;27;20510;-60
2023/01/22 01:36:47;;;;;;;32.60;12.95;;;-1.20;99.90;;;;;;5113837;27;20039;-59
2023/01/22 01:39:15;;;;;;;34.58;13.32;;;-1.20;99.90;;;;;;5135202;27;20523;-60
2023/01/22 01:41:42;;;;;;;31.85;14.10;;;-1.30;99.90;;;;;;5114795;27;20151;-60
2023/01/22 01:44:16;;;;;;;37.13;13.85;;;-1.20;99.90;;;;;;5134937;27;20035;-60
2023/01/22 01:46:59;;;;;;;34.45;14.02;;;-1.30;99.90;;;;;;5132400;27;20143;-60
2023/01/22 01:49:32;;;;;;;36.17;14.07;;;-1.20;99.90;;;;;;5134547;27;20096;-61
2023/01/22 01:52:01;;;;;;;32.67;13.18;;;-1.20;99.90;;;;;;5115383;27;20457;-60
2023/01/22 01:54:29;;;;;;;33.95;12.70;;;-1.20;99.90;;;;;;5114194;27;20107;-59
2023/01/22 01:57:08;;;;;;;36.25;13.32;;;-1.30;99.90;;;;;;5115663;27;20047;-59
2023/01/22 01:59:37;;;;;;;34.30;13.10;;;-1.20;99.90;;;;;;5115590;27;20047;-59
2023/01/22 02:02:04;;;;;;;35.00;13.15;;;-1.20;99.90;;;;;;5114507;27;20495;-58
2023/01/22 02:04:31;;;;;;;32.78;12.88;;;-1.20;99.90;;;;;;5132265;27;20239;-59
2023/01/22 02:06:57;;;;;;;33.38;12.70;;;-1.20;99.90;;;;;;5115444;27;20039;-60
2023/01/22 02:09:25;;;;;;;35.85;13.68;;;-1.20;99.90;;;;;;5114837;27;20047;-59
2023/01/22 02:11:53;;;;;;;40.15;13.55;;;-1.30;99.90;;;;;;5098617;27;20043;-59
2023/01/22 02:14:28;;;;;;;32.03;13.32;;;-1.30;99.90;;;;;;5132126;27;20027;-59
2023/01/22 02:17:10;;;;;;;39.60;14.10;;;-1.30;99.90;;;;;;5113953;27;20046;-59
2023/01/22 02:19:38;;;;;;;33.88;13.73;;;-1.30;99.90;;;;;;5114315;27;20035;-59
2023/01/22 02:22:26;;;;;;;37.58;14.68;;;-1.30;99.90;;;;;;5114513;27;20058;-59
2023/01/22 02:24:53;;;;;;;24.38;9.70;;;-1.30;99.90;;;;;;5114260;27;20036;-59
2023/01/22 02:27:20;;;;;;;33.95;13.85;;;-1.30;99.90;;;;;;5115537;27;20184;-59
2023/01/22 02:29:49;;;;;;;35.42;14.07;;;-1.30;99.90;;;;;;5115036;27;20055;-59
2023/01/22 02:32:15;;;;;;;37.25;13.85;;;-1.30;99.90;;;;;;5114145;27;20043;-59
2023/01/22 02:34:42;;;;;;;33.22;13.57;;;-1.40;99.90;;;;;;5114809;27;20042;-59
2023/01/22 02:37:09;;;;;;;33.45;13.27;;;-1.30;99.90;;;;;;5115126;27;20050;-59
2023/01/22 02:39:36;;;;;;;34.85;13.00;;;-1.40;99.90;;;;;;5131829;27;20146;-59
2023/01/22 02:42:06;;;;;;;46.72;14.10;;;-1.40;99.90;;;;;;5114827;27;20055;-59
2023/01/22 02:44:34;;;;;;;34.05;13.15;;;-1.40;99.90;;;;;;5111173;27;20057;-59
2023/01/22 02:47:01;;;;;;;38.33;14.02;;;-1.50;99.90;;;;;;5132346;27;20104;-59
2023/01/22 02:49:28;;;;;;;38.88;13.57;;;-1.50;99.90;;;;;;5113787;27;20050;-59
2023/01/22 02:51:54;;;;;;;36.92;13.43;;;-1.40;99.90;;;;;;5133334;27;20047;-59
2023/01/22 02:54:22;;;;;;;39.00;14.93;;;-1.40;99.90;;;;;;5113916;27;20047;-58
2023/01/22 02:56:49;;;;;;;41.70;15.18;;;-1.40;99.90;;;;;;5114992;27;20411;-59
2023/01/22 02:59:16;;;;;;;38.88;14.05;;;-1.50;99.90;;;;;;5096359;27;20554;-59
2023/01/22 03:01:43;;;;;;;38.55;14.45;;;-1.50;99.90;;;;;;5114475;27;20097;-59
2023/01/22 03:04:10;;;;;;;41.38;14.80;;;-1.50;99.90;;;;;;5114120;27;20130;-59
2023/01/22 03:06:39;;;;;;;45.33;14.77;;;-1.40;99.90;;;;;;5114122;27;20130;-59
2023/01/22 03:09:07;;;;;;;42.60;15.48;;;-1.40;99.90;;;;;;5114395;27;20100;-59
2023/01/22 03:11:37;;;;;;;37.00;14.35;;;-1.40;99.90;;;;;;5106092;22;20040;-60
2023/01/22 03:22:25;;;;;;;42.33;16.13;;;-1.50;99.90;;;;;;5111243;28;20043;-60
2023/01/22 03:24:52;;;;;;;44.38;16.15;;;-1.50;99.90;;;;;;5112079;28;20112;-60
2023/01/22 03:27:24;;;;;;;44.47;16.15;;;-1.50;99.90;;;;;;5111238;27;20142;-60
2023/01/22 03:29:52;;;;;;;40.65;15.18;;;-1.50;99.90;;;;;;5122645;27;20073;-60
2023/01/22 03:32:19;;;;;;;44.85;16.00;;;-1.50;99.90;;;;;;5114362;27;20446;-60
2023/01/22 03:34:46;;;;;;;40.00;15.45;;;-1.60;99.90;;;;;;5124179;27;20047;-60
2023/01/22 03:37:13;;;;;;;41.65;15.40;;;-1.60;99.90;;;;;;5118029;27;20046;-60
2023/01/22 03:39:43;;;;;;;41.17;15.07;;;-1.60;99.90;;;;;;5110923;28;20523;-60
2023/01/22 03:42:16;;;;;;;41.75;14.77;;;-1.60;99.90;;;;;;5107312;27;20539;-60
2023/01/22 03:44:44;;;;;;;40.38;14.88;;;-1.60;99.90;;;;;;5123504;27;20461;-60
2023/01/22 03:47:11;;;;;;;40.20;14.43;;;-1.70;99.90;;;;;;5115642;27;20176;-60
2023/01/22 03:49:38;;;;;;;39.67;16.00;;;-1.80;99.90;;;;;;5110901;28;20039;-60
2023/01/22 03:52:05;;;;;;;37.35;13.88;;;-1.60;99.90;;;;;;5120744;27;20044;-60
2023/01/22 03:54:31;;;;;;;40.88;13.68;;;-1.70;99.90;;;;;;5130117;27;20047;-60
2023/01/22 03:57:02;;;;;;;41.50;15.68;;;-1.70;99.90;;;;;;5125605;27;20039;-60
2023/01/22 03:59:31;;;;;;;41.97;16.83;;;-1.70;99.90;;;;;;5131040;27;20054;-60
2023/01/22 04:01:58;;;;;;;39.95;14.40;;;-1.70;99.90;;;;;;5111755;27;20043;-60
2023/01/22 04:04:25;;;;;;;44.83;15.75;;;-1.60;99.90;;;;;;5112262;27;20049;-60
2023/01/22 04:06:52;;;;;;;39.05;14.50;;;-1.60;99.90;;;;;;5111732;27;20062;-60
2023/01/22 04:09:19;;;;;;;;;;;-1.70;99.90;;;;;;5109474;28;20040;-60
2023/01/22 04:11:47;;;;;;;40.30;14.55;;;-1.70;99.90;;;;;;5118283;27;20004;-60
2023/01/22 04:14:16;;;;;;;42.33;14.82;;;-1.80;99.90;;;;;;5095145;27;20511;-60
2023/01/22 04:16:52;;;;;;;45.80;15.43;;;-1.80;99.90;;;;;;5110361;28;20042;-60
2023/01/22 04:19:29;;;;;;;31.85;11.90;;;-1.80;99.90;;;;;;5112684;27;20078;-60
2023/01/22 04:22:01;;;;;;;40.45;14.82;;;-1.90;99.90;;;;;;5130980;27;20043;-60
2023/01/22 04:24:30;;;;;;;39.28;14.82;;;-1.90;99.90;;;;;;5120992;27;20142;-60
2023/01/22 04:26:58;;;;;;;45.80;14.43;;;-1.90;99.90;;;;;;5125204;27;20487;-60
2023/01/22 04:29:26;;;;;;;39.58;14.45;;;-1.90;99.90;;;;;;5122828;27;20146;-60
2023/01/22 04:31:53;;;;;;;40.75;14.43;;;-2.00;99.90;;;;;;5110087;28;20040;-60
2023/01/22 04:34:28;;;;;;;45.22;16.10;;;-2.00;99.90;;;;;;5119167;27;20045;-60
2023/01/22 04:37:08;;;;;;;42.60;15.75;;;-2.00;99.90;;;;;;5126389;27;20509;-60
2023/01/22 04:39:35;;;;;;;44.08;16.25;;;-2.00;99.90;;;;;;5118266;27;20051;-60
2023/01/22 04:42:02;;;;;;;45.88;16.42;;;-2.00;99.90;;;;;;5093739;28;20040;-60
2023/01/22 04:44:29;;;;;;;41.92;15.35;;;-2.00;99.90;;;;;;5122864;27;20519;-60
2023/01/22 04:46:55;;;;;;;47.45;15.80;;;-2.00;99.90;;;;;;5128710;28;20043;-60
2023/01/22 04:49:22;;;;;;;46.80;16.23;;;-2.00;99.90;;;;;;5116689;28;20040;-60
2023/01/22 04:51:52;;;;;;;35.75;14.30;;;-2.00;99.90;;;;;;5109382;28;20044;-60
2023/01/22 04:54:19;;;;;;;38.60;14.13;;;-2.00;99.90;;;;;;5117528;28;20043;-60
2023/01/22 04:56:46;;;;;;;46.25;16.15;;;-2.00;99.90;;;;;;5109639;28;20040;-60
2023/01/22 04:59:13;;;;;;;40.28;16.05;;;-2.00;99.90;;;;;;5109177;28;20054;-60
2023/01/22 05:01:41;;;;;;;44.97;15.90;;;-2.00;99.90;;;;;;5109624;28;20097;-60
2023/01/22 05:04:09;;;;;;;50.28;16.60;;;-2.00;99.90;;;;;;5111076;28;20036;-60
2023/01/22 05:06:36;;;;;;;44.97;15.55;;;-2.00;99.90;;;;;;5109792;28;20052;-60
2023/01/22 05:09:03;;;;;;;47.45;16.70;;;-2.00;99.90;;;;;;5108558;28;20557;-60
2023/01/22 05:11:39;;;;;;;45.47;15.80;;;-2.00;99.90;;;;;;5111430;28;20035;-60
2023/01/22 05:14:06;;;;;;;47.65;16.52;;;-2.00;99.90;;;;;;5110422;28;20040;-60
2023/01/22 05:16:36;;;;;;;50.97;16.90;;;-2.00;99.90;;;;;;5109423;28;20480;-60
2023/01/22 05:19:03;;;;;;;48.60;17.70;;;-2.00;99.90;;;;;;5129780;28;20061;-60
2023/01/22 05:21:30;;;;;;;49.35;16.60;;;-2.00;99.90;;;;;;5126204;28;20068;-60
2023/01/22 05:23:57;;;;;;;42.67;15.00;;;-2.00;99.90;;;;;;5123121;28;20479;-60
2023/01/22 05:26:27;;;;;;;44.75;16.35;;;-2.00;99.90;;;;;;5127821;27;20092;-60
2023/01/22 05:28:59;;;;;;;40.83;16.55;;;-2.00;99.90;;;;;;5111885;28;20050;-60
2023/01/22 05:31:42;;;;;;;46.75;16.38;;;-2.00;99.90;;;;;;5110729;28;20044;-60
2023/01/22 05:34:23;;;;;;;39.97;15.57;;;-2.10;99.90;;;;;;5109367;28;20036;-60
2023/01/22 05:36:52;;;;;;;42.97;16.58;;;-2.10;99.90;;;;;;5109568;28;20040;-60
2023/01/22 05:39:20;;;;;;;44.13;15.10;;;-2.10;99.90;;;;;;5109398;28;20051;-60
2023/01/22 05:41:51;;;;;;;38.03;14.57;;;-2.00;99.90;;;;;;5108866;28;20552;-60
2023/01/22 05:44:18;;;;;;;45.83;15.88;;;-2.10;99.90;;;;;;5109417;28;20389;-60
2023/01/22 05:46:50;;;;;;;41.28;14.88;;;-2.00;99.90;;;;;;5107803;28;20051;-60
2023/01/22 05:49:23;;;;;;;41.65;16.25;;;-2.00;99.90;;;;;;5116171;28;20430;-60
2023/01/22 05:51:53;;;;;;;40.13;14.65;;;-2.00;99.90;;;;;;5114096;28;20038;-60
2023/01/22 05:54:21;;;;;;;43.13;15.00;;;-2.00;99.90;;;;;;5128166;27;20039;-60
2023/01/22 05:56:48;;;;;;;37.40;13.80;;;-2.00;99.90;;;;;;5126996;27;20050;-60
2023/01/22 05:59:16;;;;;;;33.80;13.73;;;-2.10;99.90;;;;;;5133163;27;20071;-60
2023/01/22 06:01:50;;;;;;;36.53;14.43;;;-2.00;99.90;;;;;;5115373;27;20036;-60
2023/01/22 06:04:17;;;;;;;;;;;-2.20;99.90;;;;;;5113246;28;20070;-60
2023/01/22 06:06:44;;;;;;;37.78;13.02;;;-2.20;99.90;;;;;;5111497;28;19919;-60
2023/01/22 06:09:12;;;;;;;22.33;8.82;;;-2.30;99.90;;;;;;5116566;27;20043;-60
2023/01/22 06:11:40;;;;;;;36.53;11.00;;;-2.30;99.90;;;;;;5117197;27;20036;-60
2023/01/22 06:14:07;;;;;;;30.25;10.20;;;-2.30;99.90;;;;;;5128649;27;20039;-60
2023/01/22 06:16:34;;;;;;;26.05;9.40;;;-2.30;99.90;;;;;;5113341;27;20083;-60
2023/01/22 06:19:07;;;;;;;26.80;9.98;;;-2.30;99.90;;;;;;5112872;27;20058;-60
2023/01/22 06:21:42;;;;;;;27.15;9.88;;;-2.30;99.90;;;;;;5120702;27;20417;-60
2023/01/22 06:24:10;;;;;;;27.75;10.43;;;-2.30;99.90;;;;;;5114872;27;20040;-60
2023/01/22 06:26:36;;;;;;;26.90;9.95;;;-2.30;99.90;;;;;;5113044;27;20047;-60
2023/01/22 06:29:06;;;;;;;31.83;10.52;;;-2.20;99.90;;;;;;5098240;27;20703;-60
2023/01/22 06:31:33;;;;;;;26.38;10.32;;;-2.40;99.90;;;;;;5128314;27;20403;-60
2023/01/22 06:34:04;;;;;;;29.42;10.23;;;-2.40;99.90;;;;;;5122079;27;20036;-60
2023/01/22 06:36:31;;;;;;;;;;;-2.40;99.90;;;;;;5112128;28;20044;-60
2023/01/22 06:39:00;;;;;;;26.95;10.00;;;-2.40;99.90;;;;;;5111575;28;20397;-60
2023/01/22 06:41:43;;;;;;;32.00;10.70;;;-2.40;99.90;;;;;;5113619;27;20150;-60
2023/01/22 06:44:13;;;;;;;31.15;10.43;;;-2.40;99.90;;;;;;5111587;28;20116;-61
2023/01/22 06:46:40;;;;;;;;;;;-2.40;99.90;;;;;;5112320;28;20093;-61
2023/01/22 06:49:10;;;;;;;29.75;11.02;;;-2.50;99.90;;;;;;5112443;27;20343;-61
2023/01/22 06:51:38;;;;;;;38.03;11.57;;;-2.40;99.90;;;;;;5111519;27;20507;-60
2023/01/22 06:54:05;;;;;;;30.25;11.10;;;-2.40;99.90;;;;;;5122652;27;20099;-60
2023/01/22 06:56:32;;;;;;;34.30;10.95;;;-2.40;99.90;;;;;;5132267;27;20069;-61
2023/01/22 06:59:01;;;;;;;32.42;11.80;;;-2.40;99.90;;;;;;5130796;27;20130;-60
2023/01/22 07:01:28;;;;;;;27.40;10.25;;;-2.40;99.90;;;;;;5122601;27;20044;-61
2023/01/22 07:03:55;;;;;;;32.58;10.07;;;-2.40;99.90;;;;;;5113429;27;20067;-60
2023/01/22 07:06:22;;;;;;;28.73;10.40;;;-2.40;99.90;;;;;;5113074;28;20070;-61
2023/01/22 07:08:49;;;;;;;27.10;10.60;;;-2.40;99.90;;;;;;5124409;27;20035;-60
2023/01/22 07:11:16;;;;;;;25.98;7.95;;;-2.40;99.90;;;;;;5122768;27;20063;-60
2023/01/22 07:13:42;;;;;;;28.05;10.95;;;-2.40;99.90;;;;;;5116007;27;20039;-61
2023/01/22 07:16:10;;;;;;;39.45;11.73;;;-2.30;99.90;;;;;;5116241;27;20031;-60
2023/01/22 07:18:36;;;;;;;37.88;13.05;;;-2.20;99.90;;;;;;5113964;27;20453;-61
2023/01/22 07:21:04;;;;;;;28.77;9.45;;;-2.00;99.90;;;;;;5127497;27;20067;-61
2023/01/22 07:23:31;;;;;;;32.85;12.90;;;-1.70;99.90;;;;;;5132097;27;20084;-61
2023/01/22 07:25:58;;;;;;;38.65;15.13;;;-2.00;99.90;;;;;;5131513;27;20031;-60
2023/01/22 07:28:25;;;;;;;38.58;13.48;;;-1.90;99.90;;;;;;5130089;27;20064;-61
2023/01/22 07:30:51;;;;;;;36.08;13.63;;;-1.80;99.90;;;;;;5117971;27;20048;-61
2023/01/22 07:33:18;;;;;;;39.90;13.02;;;-1.90;99.90;;;;;;5120520;27;20043;-60
2023/01/22 07:35:54;;;;;;;24.52;8.85;;;-1.70;99.90;;;;;;5111305;28;20047;-61
2023/01/22 07:38:20;;;;;;;27.40;11.57;;;-1.80;99.90;;;;;;5111589;28;20461;-60
2023/01/22 07:40:48;;;;;;;33.10;12.15;;;-1.80;99.90;;;;;;5115819;27;20039;-61
2023/01/22 07:43:16;;;;;;;31.83;12.93;;;-1.80;99.90;;;;;;5121824;27;20092;-61
2023/01/22 07:45:43;;;;;;;28.77;11.40;;;-1.70;99.90;;;;;;5111250;28;20047;-60
2023/01/22 07:48:09;;;;;;;36.13;15.18;;;-1.60;99.90;;;;;;5111882;28;20043;-61
2023/01/22 07:50:38;;;;;;;30.48;13.50;;;-1.50;99.90;;;;;;5116729;27;20066;-61
2023/01/22 07:53:07;;;;;;;43.17;14.02;;;-1.40;99.90;;;;;;5111747;28;20032;-60
2023/01/22 07:55:34;;;;;;;30.90;12.43;;;-1.20;99.90;;;;;;5111052;28;20051;-60
2023/01/22 07:58:03;;;;;;;22.83;8.30;;;-1.10;99.90;;;;;;5111791;28;20489;-61
2023/01/22 08:00:32;;;;;;;27.40;10.93;;;-1.00;99.90;;;;;;5114415;27;20101;-61
2023/01/22 08:02:59;;;;;;;30.55;11.30;;;-1.00;99.90;;;;;;5124355;27;20031;-61
2023/01/22 08:05:26;;;;;;;34.40;12.75;;;-1.00;99.90;;;;;;5110922;28;20074;-61
2023/01/22 08:07:52;;;;;;;30.35;11.57;;;-1.00;99.90;;;;;;5116883;27;20044;-61
2023/01/22 08:10:19;;;;;;;29.52;9.45;;;-1.00;99.90;;;;;;5110302;28;20067;-61
2023/01/22 08:12:46;;;;;;;;;;;-1.00;99.90;;;;;;5111371;28;20064;-61
2023/01/22 08:15:13;;;;;;;35.42;11.75;;;-1.00;99.90;;;;;;5113952;27;20023;-61
2023/01/22 08:17:41;;;;;;;26.63;10.13;;;-0.90;99.90;;;;;;5118459;27;20044;-61
2023/01/22 08:20:08;;;;;;;;;;;-0.90;99.90;;;;;;5111141;28;20047;-61
2023/01/22 08:22:35;;;;;;;27.35;10.23;;;-0.90;99.90;;;;;;5111079;28;19924;-61
2023/01/22 08:25:01;;;;;;;40.30;10.32;;;-0.90;99.90;;;;;;5110681;28;20047;-60
2023/01/22 08:27:28;;;;;;;28.33;10.57;;;-1.00;99.90;;;;;;5118191;27;20491;-61
2023/01/22 08:29:55;;;;;;;27.85;11.05;;;-1.00;99.90;;;;;;5110657;28;20101;-61
2023/01/22 08:32:21;;;;;;;29.35;10.30;;;-1.00;99.90;;;;;;5124110;27;20086;-61
2023/01/22 08:34:52;;;;;;;26.52;11.50;;;-1.00;99.90;;;;;;5110747;28;20040;-61
2023/01/22 08:37:20;;;;;;;36.67;11.48;;;-0.90;99.90;;;;;;5110470;28;20044;-61
2023/01/22 08:39:47;;;;;;;25.15;10.82;;;-0.80;99.90;;;;;;5120892;28;20039;-61
2023/01/22 08:42:14;;;;;;;33.25;10.93;;;-0.70;99.90;;;;;;5122234;27;20039;-61
2023/01/22 08:44:41;;;;;;;26.17;11.30;;;-0.70;99.90;;;;;;5131239;28;20039;-61
2023/01/22 08:47:10;;;;;;;28.15;11.40;;;-0.70;99.90;;;;;;5130642;28;20039;-61
2023/01/22 08:49:37;;;;;;;31.48;11.48;;;-0.70;99.90;;;;;;5110691;27;20043;-61
2023/01/22 08:52:04;;;;;;;29.05;11.35;;;-0.90;99.90;;;;;;5108911;28;20089;-61
2023/01/22 08:54:30;;;;;;;28.17;10.95;;;-1.00;99.90;;;;;;5110651;28;20040;-61
2023/01/22 08:56:57;;;;;;;31.02;11.15;;;-1.10;99.90;;;;;;5118295;28;20437;-61
2023/01/22 08:59:24;;;;;;;32.97;11.35;;;-1.10;99.90;;;;;;5119292;28;20100;-61
2023/01/22 09:01:51;;;;;;;31.08;12.43;;;-1.10;99.90;;;;;;5110132;28;20051;-61
2023/01/22 09:04:18;;;;;;;28.45;11.68;;;-1.10;99.90;;;;;;5109605;28;20048;-61
2023/01/22 09:06:45;;;;;;;35.17;13.00;;;-1.10;99.90;;;;;;5109972;28;20043;-61
2023/01/22 09:09:12;;;;;;;36.95;12.15;;;-1.10;99.90;;;;;;5118849;27;20036;-61
2023/01/22 09:11:38;;;;;;;29.42;12.55;;;-1.00;99.90;;;;;;5127556;22;20011;-60
2023/01/22 09:14:08;;;;;;;25.73;12.20;;;-0.80;99.90;;;;;;5063055;28;20081;-58
2023/01/22 09:16:36;;;;;;;32.90;11.80;;;-0.60;99.90;;;;;;5058765;28;20041;-59
2023/01/22 09:19:03;;;;;;;34.53;13.30;;;-0.50;99.90;;;;;;5060860;28;20455;-58
2023/01/22 09:21:32;;;;;;;34.63;13.25;;;-0.40;99.90;;;;;;5047358;28;20094;-58
2023/01/22 09:23:59;;;;;;;44.78;15.23;;;-0.30;99.90;;;;;;5064950;28;20044;-59
2023/01/22 09:26:26;;;;;;;40.67;15.68;;;-0.30;99.90;;;;;;5068812;28;20037;-59
2023/01/22 09:28:53;;;;;;;42.33;15.52;;;-0.30;99.90;;;;;;5047126;28;20037;-60
2023/01/22 09:31:19;;;;;;;50.03;17.25;;;-0.50;99.90;;;;;;5052507;28;20505;-59
2023/01/22 09:33:46;;;;;;;40.65;15.88;;;-0.70;99.90;;;;;;5060641;28;20436;-59
2023/01/22 09:36:15;;;;;;;34.60;12.13;;;-0.80;99.90;;;;;;5052644;28;20073;-60
2023/01/22 09:38:43;;;;;;;49.95;16.60;;;-0.90;99.90;;;;;;5052341;28;20502;-59
2023/01/22 09:41:29;;;;;;;42.33;15.13;;;-0.90;99.90;;;;;;5052866;28;20111;-59
2023/01/22 09:44:21;;;;;;;45.53;15.27;;;-1.00;99.90;;;;;;5057660;28;20049;-60
2023/01/22 09:46:53;;;;;;;42.47;15.27;;;-1.00;99.90;;;;;;5052745;28;20053;-59
2023/01/22 09:49:25;;;;;;;44.97;16.02;;;-0.90;99.90;;;;;;5036183;28;20070;-59
2023/01/22 09:51:57;;;;;;;41.20;14.40;;;-0.90;99.90;;;;;;5055489;28;20040;-57
2023/01/22 09:54:26;;;;;;;38.22;15.57;;;-0.90;99.90;;;;;;5065177;28;20049;-59
2023/01/22 09:56:57;;;;;;;43.20;16.48;;;-0.80;99.90;;;;;;5072272;28;20040;-59
2023/01/22 09:59:34;;;;;;;38.33;16.08;;;-0.80;99.90;;;;;;5057385;28;20559;-59
2023/01/22 10:02:11;;;;;;;50.23;18.20;;;-0.80;99.90;;;;;;5072167;28;20040;-59
2023/01/22 10:04:47;;;;;;;48.95;17.63;;;-0.90;99.90;;;;;;5055273;28;20087;-58
2023/01/22 10:07:26;;;;;;;37.72;14.43;;;-0.90;99.90;;;;;;5080778;28;20048;-59
2023/01/22 10:09:57;;;;;;;39.53;15.60;;;-0.90;99.90;;;;;;5064029;28;20084;-59
2023/01/22 10:12:28;;;;;;;41.28;16.00;;;-0.80;99.90;;;;;;5059776;28;20142;-59
2023/01/22 10:14:56;;;;;;;42.22;17.10;;;-0.70;99.90;;;;;;5052092;28;20090;-59
2023/01/22 10:17:29;;;;;;;45.92;15.68;;;-0.70;99.90;;;;;;5051981;28;20467;-57
2023/01/22 10:20:00;;;;;;;43.72;16.92;;;-0.70;99.90;;;;;;5051909;28;20041;-59
2023/01/22 10:22:27;;;;;;;57.17;16.42;;;-0.70;99.90;;;;;;5065364;28;20044;-59
2023/01/22 10:24:54;;;;;;;38.05;15.85;;;-0.70;99.90;;;;;;5072167;28;20479;-59
2023/01/22 10:27:34;;;;;;;38.65;15.50;;;-0.80;99.90;;;;;;5078378;28;20055;-59
2023/01/22 10:30:15;;;;;;;43.05;16.98;;;-0.70;99.90;;;;;;5053598;28;20079;-58
2023/01/22 10:32:42;;;;;;;38.45;13.90;;;-0.70;99.90;;;;;;5051861;28;20041;-59
2023/01/22 10:35:18;;;;;;;26.92;10.63;;;-0.50;99.90;;;;;;5052051;28;20110;-59
2023/01/22 10:37:48;;;;;;;36.50;14.57;;;-0.30;99.90;;;;;;5052620;28;20087;-59
2023/01/22 10:40:36;;;;;;;38.42;14.68;;;0.00;99.90;;;;;;5068327;28;20935;-59
2023/01/22 10:43:16;;;;;;;31.13;13.20;;;0.20;99.90;;;;;;5056687;28;20049;-59
2023/01/22 10:45:55;;;;;;;33.08;13.85;;;0.40;99.90;;;;;;5051974;28;20106;-59
2023/01/22 10:48:22;;;;;;;33.47;14.02;;;0.70;99.90;;;;;;5051430;28;20049;-59
2023/01/22 10:51:00;;;;;;;;;;;0.80;99.90;;;;;;5058560;28;20041;-59
2023/01/22 10:53:33;;;;;;;40.28;16.65;;;0.80;99.90;;;;;;5050816;28;19967;-59
2023/01/22 10:56:02;;;;;;;41.90;15.55;;;0.90;99.90;;;;;;5052190;28;20107;-59
2023/01/22 10:58:35;;;;;;;41.15;17.10;;;0.90;99.90;;;;;;5051293;28;20502;-59
2023/01/22 11:01:26;;;;;;;47.30;19.15;;;0.90;99.90;;;;;;5061689;28;20052;-59
2023/01/22 11:03:53;;;;;;;47.13;16.85;;;1.00;99.90;;;;;;5050083;28;20078;-59
2023/01/22 11:06:26;;;;;;;36.88;14.98;;;0.90;99.90;;;;;;5058269;28;20049;-59
2023/01/22 11:09:11;;;;;;;27.15;12.73;;;0.80;99.90;;;;;;5071636;28;20049;-59
2023/01/22 11:11:46;;;;;;;33.47;12.48;;;1.00;99.90;;;;;;5050397;28;20129;-59
2023/01/22 11:14:22;;;;;;;28.85;12.13;;;1.20;99.90;;;;;;5050855;28;20044;-60
2023/01/22 11:16:52;;;;;;;34.03;12.88;;;1.30;99.90;;;;;;5063401;28;20047;-59
2023/01/22 11:19:22;;;;;;;32.65;13.65;;;1.30;99.90;;;;;;5073981;28;20044;-59
2023/01/22 11:22:13;;;;;;;35.15;13.68;;;1.20;99.90;;;;;;5062971;28;20048;-59
2023/01/22 11:24:47;;;;;;;24.75;10.00;;;1.10;99.90;;;;;;5050858;28;20049;-60
2023/01/22 11:27:36;;;;;;;36.85;14.70;;;1.10;99.90;;;;;;5051041;28;20098;-59
2023/01/22 11:30:21;;;;;;;;;;;1.10;99.90;;;;;;5060498;28;20071;-59
2023/01/22 11:33:18;;;;;;;32.10;12.88;;;1.30;99.90;;;;;;5053668;28;19920;-59
2023/01/22 11:36:02;;;;;;;36.60;14.95;;;1.60;99.90;;;;;;5068139;28;20106;-60
2023/01/22 11:38:37;;;;;;;41.83;14.43;;;1.70;99.90;;;;;;5069440;28;20064;-59
2023/01/22 11:41:47;;;;;;;24.23;10.75;;;1.80;99.90;;;;;;5065275;28;20549;-60
2023/01/22 11:44:22;;;;;;;24.67;10.32;;;2.00;99.90;;;;;;5034208;28;20091;-59
2023/01/22 11:47:18;;;;;;;34.40;12.25;;;2.00;99.90;;;;;;5065891;28;20048;-59
2023/01/22 11:50:08;;;;;;;34.70;12.02;;;1.90;99.90;;;;;;5066800;28;20472;-58
2023/01/22 11:52:46;;;;;;;32.28;11.88;;;2.00;99.90;;;;;;5059462;28;20078;-59
2023/01/22 11:55:40;;;;;;;28.60;11.68;;;1.90;99.90;;;;;;5049934;28;20060;-59
2023/01/22 11:58:25;;;;;;;34.05;11.70;;;2.00;99.90;;;;;;5051270;28;20048;-60
2023/01/22 12:01:02;;;;;;;26.38;11.68;;;2.00;99.90;;;;;;5055071;28;20068;-60
2023/01/22 12:03:54;;;;;;;22.90;11.13;;;1.90;99.90;;;;;;5063038;28;20052;-59
2023/01/22 12:06:36;;;;;;;21.65;10.93;;;1.80;99.90;;;;;;5068085;28;20052;-60
2023/01/22 12:09:30;;;;;;;25.52;11.82;;;1.70;99.90;;;;;;5071447;28;20604;-57
2023/01/22 12:12:02;;;;;;;25.50;11.00;;;1.80;99.90;;;;;;5050004;28;20041;-57
2023/01/22 12:14:56;;;;;;;28.40;12.23;;;1.90;99.90;;;;;;5050070;28;20397;-58
2023/01/22 12:17:42;;;;;;;34.33;11.98;;;2.00;99.90;;;;;;5051315;28;20128;-59
2023/01/22 12:20:39;;;;;;;27.98;11.43;;;2.20;99.90;;;;;;5058873;28;20051;-58
2023/01/22 12:23:25;;;;;;;27.23;11.57;;;2.30;99.90;;;;;;5070298;28;20539;-59
2023/01/22 12:25:58;;;;;;;26.77;11.40;;;2.30;99.90;;;;;;5052804;28;20056;-59
2023/01/22 12:28:41;;;;;;;27.17;11.82;;;2.40;99.90;;;;;;5063656;28;20137;-60
2023/01/22 12:31:18;;;;;;;21.63;11.80;;;2.30;99.90;;;;;;5050341;28;20037;-60
2023/01/22 12:33:45;;;;;;;28.70;14.23;;;2.20;99.90;;;;;;5059673;28;20545;-59
2023/01/22 12:36:17;;;;;;;27.80;11.95;;;2.00;99.90;;;;;;5070005;28;20093;-59
2023/01/22 12:39:07;;;;;;;28.25;12.23;;;1.80;99.90;;;;;;5060910;28;20044;-59
2023/01/22 12:42:04;;;;;;;27.13;12.52;;;1.70;99.90;;;;;;5066448;28;20045;-60
2023/01/22 12:44:52;;;;;;;24.73;11.77;;;1.70;99.90;;;;;;5062523;28;20040;-60
2023/01/22 12:47:35;;;;;;;23.77;14.00;;;1.60;99.90;;;;;;5068090;28;20045;-59
2023/01/22 12:50:02;;;;;;;31.30;12.77;;;1.60;99.90;;;;;;5067073;28;20037;-60
2023/01/22 12:52:34;;;;;;;26.85;12.52;;;1.50;99.90;;;;;;5067813;28;20067;-60
2023/01/22 12:55:19;;;;;;;28.10;12.40;;;1.50;99.90;;;;;;5062643;28;20041;-60
2023/01/22 12:57:46;;;;;;;30.13;12.48;;;1.40;99.90;;;;;;5067693;28;20098;-60